sensor_id;sensor_type;location;lat;lon;timestamp;P1;durP1;ratioP1;P2;durP2;ratioP2
49223;SDS011;35050;51.316;5.994;2023-03-16T00:01:40;2.40;;;1.65;;
49223;SDS011;35050;51.316;5.994;2023-03-16T00:04:07;2.03;;;1.63;;
49223;SDS011;35050;51.316;5.994;2023-03-16T00:06:33;2.65;;;1.50;;
49223;SDS011;35050;51.316;5.994;2023-03-16T00:09:00;2.42;;;1.40;;
49223;SDS011;35050;51.316;5.994;2023-03-16T00:11:27;2.38;;;1.33;;
49223;SDS011;35050;51.316;5.994;2023-03-16T00:13:53;1.98;;;1.38;;
49223;SDS011;35050;51.316;5.994;2023-03-16T00:16:18;2.63;;;1.75;;
49223;SDS011;35050;51.316;5.994;2023-03-16T00:18:44;2.55;;;1.52;;
49223;SDS011;35050;51.316;5.994;2023-03-16T00:21:10;2.42;;;1.58;;
49223;SDS011;35050;51.316;5.994;2023-03-16T00:23:38;2.00;;;1.55;;
49223;SDS011;35050;51.316;5.994;2023-03-16T00:26:04;3.50;;;1.75;;
49223;SDS011;35050;51.316;5.994;2023-03-16T00:28:32;2.13;;;1.38;;
49223;SDS011;35050;51.316;5.994;2023-03-16T00:31:03;1.40;;;1.30;;
49223;SDS011;35050;51.316;5.994;2023-03-16T00:33:30;2.08;;;1.45;;
49223;SDS011;35050;51.316;5.994;2023-03-16T00:36:02;2.40;;;1.60;;
49223;SDS011;35050;51.316;5.994;2023-03-16T00:38:30;2.70;;;1.60;;
49223;SDS011;35050;51.316;5.994;2023-03-16T00:40:58;2.97;;;1.55;;
49223;SDS011;35050;51.316;5.994;2023-03-16T00:43:27;2.70;;;1.60;;
49223;SDS011;35050;51.316;5.994;2023-03-16T00:45:58;1.65;;;1.25;;
49223;SDS011;35050;51.316;5.994;2023-03-16T00:48:30;2.15;;;1.27;;
49223;SDS011;35050;51.316;5.994;2023-03-16T00:51:03;2.58;;;1.88;;
49223;SDS011;35050;51.316;5.994;2023-03-16T00:53:32;2.03;;;1.45;;
49223;SDS011;35050;51.316;5.994;2023-03-16T00:55:58;3.63;;;1.38;;
49223;SDS011;35050;51.316;5.994;2023-03-16T00:58:28;2.33;;;1.42;;
49223;SDS011;35050;51.316;5.994;2023-03-16T01:01:00;1.80;;;1.20;;
49223;SDS011;35050;51.316;5.994;2023-03-16T01:06:12;1.40;;;1.30;;
49223;SDS011;35050;51.316;5.994;2023-03-16T01:08:39;2.63;;;1.50;;
49223;SDS011;35050;51.316;5.994;2023-03-16T01:11:07;3.35;;;1.65;;
49223;SDS011;35050;51.316;5.994;2023-03-16T01:13:40;1.55;;;1.30;;
49223;SDS011;35050;51.316;5.994;2023-03-16T01:16:06;2.45;;;1.30;;
49223;SDS011;35050;51.316;5.994;2023-03-16T01:18:33;1.42;;;1.20;;
49223;SDS011;35050;51.316;5.994;2023-03-16T01:21:03;2.40;;;1.40;;
49223;SDS011;35050;51.316;5.994;2023-03-16T01:23:30;2.45;;;1.63;;
49223;SDS011;35050;51.316;5.994;2023-03-16T01:25:56;2.30;;;1.67;;
49223;SDS011;35050;51.316;5.994;2023-03-16T01:28:23;3.70;;;1.92;;
49223;SDS011;35050;51.316;5.994;2023-03-16T01:30:51;1.83;;;1.30;;
49223;SDS011;35050;51.316;5.994;2023-03-16T01:33:22;2.72;;;1.20;;
49223;SDS011;35050;51.316;5.994;2023-03-16T01:36:00;2.88;;;1.20;;
49223;SDS011;35050;51.316;5.994;2023-03-16T01:38:28;1.88;;;1.20;;
49223;SDS011;35050;51.316;5.994;2023-03-16T01:40:54;2.00;;;1.48;;
49223;SDS011;35050;51.316;5.994;2023-03-16T01:43:21;1.77;;;1.10;;
49223;SDS011;35050;51.316;5.994;2023-03-16T01:48:41;1.00;;;1.00;;
49223;SDS011;35050;51.316;5.994;2023-03-16T01:51:09;1.63;;;1.17;;
49223;SDS011;35050;51.316;5.994;2023-03-16T01:53:40;1.48;;;1.33;;
49223;SDS011;35050;51.316;5.994;2023-03-16T01:56:09;1.95;;;1.35;;
49223;SDS011;35050;51.316;5.994;2023-03-16T01:58:37;2.45;;;1.40;;
49223;SDS011;35050;51.316;5.994;2023-03-16T02:01:06;1.95;;;1.27;;
49223;SDS011;35050;51.316;5.994;2023-03-16T02:03:32;2.38;;;1.20;;
49223;SDS011;35050;51.316;5.994;2023-03-16T02:06:05;1.77;;;1.13;;
49223;SDS011;35050;51.316;5.994;2023-03-16T02:08:37;2.70;;;1.50;;
49223;SDS011;35050;51.316;5.994;2023-03-16T02:11:05;2.80;;;1.42;;
49223;SDS011;35050;51.316;5.994;2023-03-16T02:13:33;1.85;;;1.27;;
49223;SDS011;35050;51.316;5.994;2023-03-16T02:16:01;1.63;;;1.42;;
49223;SDS011;35050;51.316;5.994;2023-03-16T02:18:29;2.28;;;1.52;;
49223;SDS011;35050;51.316;5.994;2023-03-16T02:23:54;2.10;;;1.40;;
49223;SDS011;35050;51.316;5.994;2023-03-16T02:32:05;4.78;;;1.90;;
49223;SDS011;35050;51.316;5.994;2023-03-16T02:34:31;1.73;;;1.30;;
49223;SDS011;35050;51.316;5.994;2023-03-16T02:36:57;1.83;;;1.40;;
49223;SDS011;35050;51.316;5.994;2023-03-16T02:39:24;1.77;;;1.30;;
49223;SDS011;35050;51.316;5.994;2023-03-16T02:41:50;2.83;;;1.30;;
49223;SDS011;35050;51.316;5.994;2023-03-16T02:44:18;2.03;;;1.17;;
49223;SDS011;35050;51.316;5.994;2023-03-16T02:46:49;2.65;;;1.35;;
49223;SDS011;35050;51.316;5.994;2023-03-16T02:49:22;3.25;;;1.48;;
49223;SDS011;35050;51.316;5.994;2023-03-16T02:51:57;2.00;;;1.23;;
49223;SDS011;35050;51.316;5.994;2023-03-16T02:54:22;2.25;;;1.20;;
49223;SDS011;35050;51.316;5.994;2023-03-16T02:56:48;2.03;;;1.35;;
49223;SDS011;35050;51.316;5.994;2023-03-16T02:59:15;1.42;;;1.10;;
49223;SDS011;35050;51.316;5.994;2023-03-16T03:01:41;1.27;;;1.10;;
49223;SDS011;35050;51.316;5.994;2023-03-16T03:04:07;2.22;;;1.40;;
49223;SDS011;35050;51.316;5.994;2023-03-16T03:06:33;2.60;;;1.55;;
49223;SDS011;35050;51.316;5.994;2023-03-16T03:08:59;1.70;;;1.20;;
49223;SDS011;35050;51.316;5.994;2023-03-16T03:11:26;5.18;;;1.45;;
49223;SDS011;35050;51.316;5.994;2023-03-16T03:13:52;2.85;;;1.40;;
49223;SDS011;35050;51.316;5.994;2023-03-16T03:16:18;3.03;;;1.48;;
49223;SDS011;35050;51.316;5.994;2023-03-16T03:18:45;2.63;;;1.50;;
49223;SDS011;35050;51.316;5.994;2023-03-16T03:21:11;2.83;;;1.17;;
49223;SDS011;35050;51.316;5.994;2023-03-16T03:23:36;3.13;;;1.17;;
49223;SDS011;35050;51.316;5.994;2023-03-16T03:26:02;2.42;;;1.60;;
49223;SDS011;35050;51.316;5.994;2023-03-16T03:28:28;1.92;;;1.40;;
49223;SDS011;35050;51.316;5.994;2023-03-16T03:30:55;2.30;;;1.30;;
49223;SDS011;35050;51.316;5.994;2023-03-16T03:33:21;2.13;;;1.35;;
49223;SDS011;35050;51.316;5.994;2023-03-16T03:35:51;2.28;;;1.35;;
49223;SDS011;35050;51.316;5.994;2023-03-16T03:38:21;5.40;;;1.85;;
49223;SDS011;35050;51.316;5.994;2023-03-16T03:40:51;1.77;;;1.30;;
49223;SDS011;35050;51.316;5.994;2023-03-16T03:43:18;1.25;;;1.05;;
49223;SDS011;35050;51.316;5.994;2023-03-16T03:45:45;0.88;;;0.88;;
49223;SDS011;35050;51.316;5.994;2023-03-16T03:48:11;3.35;;;1.40;;
49223;SDS011;35050;51.316;5.994;2023-03-16T03:50:37;4.28;;;1.35;;
49223;SDS011;35050;51.316;5.994;2023-03-16T03:53:04;1.90;;;1.20;;
49223;SDS011;35050;51.316;5.994;2023-03-16T03:55:30;4.00;;;1.25;;
49223;SDS011;35050;51.316;5.994;2023-03-16T03:57:56;2.45;;;1.48;;
49223;SDS011;35050;51.316;5.994;2023-03-16T04:00:21;2.90;;;1.50;;
49223;SDS011;35050;51.316;5.994;2023-03-16T04:02:47;3.65;;;1.42;;
49223;SDS011;35050;51.316;5.994;2023-03-16T04:05:13;2.05;;;1.50;;
49223;SDS011;35050;51.316;5.994;2023-03-16T04:07:39;2.42;;;1.33;;
49223;SDS011;35050;51.316;5.994;2023-03-16T04:10:05;2.50;;;1.27;;
49223;SDS011;35050;51.316;5.994;2023-03-16T04:12:32;2.50;;;1.50;;
49223;SDS011;35050;51.316;5.994;2023-03-16T04:14:58;3.08;;;1.50;;
49223;SDS011;35050;51.316;5.994;2023-03-16T04:17:23;1.48;;;1.35;;
49223;SDS011;35050;51.316;5.994;2023-03-16T04:19:49;1.90;;;1.42;;
49223;SDS011;35050;51.316;5.994;2023-03-16T04:22:15;2.47;;;1.67;;
49223;SDS011;35050;51.316;5.994;2023-03-16T04:24:41;2.72;;;1.63;;
49223;SDS011;35050;51.316;5.994;2023-03-16T04:27:08;2.67;;;1.80;;
49223;SDS011;35050;51.316;5.994;2023-03-16T04:29:36;1.65;;;1.50;;
49223;SDS011;35050;51.316;5.994;2023-03-16T04:32:03;1.92;;;1.25;;
49223;SDS011;35050;51.316;5.994;2023-03-16T04:34:30;1.98;;;1.33;;
49223;SDS011;35050;51.316;5.994;2023-03-16T04:36:56;3.13;;;1.42;;
49223;SDS011;35050;51.316;5.994;2023-03-16T04:39:21;2.28;;;1.40;;
49223;SDS011;35050;51.316;5.994;2023-03-16T04:41:47;2.10;;;1.35;;
49223;SDS011;35050;51.316;5.994;2023-03-16T04:44:13;3.42;;;1.65;;
49223;SDS011;35050;51.316;5.994;2023-03-16T04:46:39;3.25;;;1.60;;
49223;SDS011;35050;51.316;5.994;2023-03-16T04:49:05;5.00;;;1.73;;
49223;SDS011;35050;51.316;5.994;2023-03-16T04:51:33;2.25;;;1.58;;
49223;SDS011;35050;51.316;5.994;2023-03-16T04:54:04;2.15;;;1.30;;
49223;SDS011;35050;51.316;5.994;2023-03-16T04:56:30;1.30;;;1.20;;
49223;SDS011;35050;51.316;5.994;2023-03-16T04:58:56;2.03;;;1.20;;
49223;SDS011;35050;51.316;5.994;2023-03-16T05:01:21;2.80;;;1.45;;
49223;SDS011;35050;51.316;5.994;2023-03-16T05:03:47;2.47;;;1.38;;
49223;SDS011;35050;51.316;5.994;2023-03-16T05:06:14;2.30;;;1.30;;
49223;SDS011;35050;51.316;5.994;2023-03-16T05:08:40;2.55;;;1.50;;
49223;SDS011;35050;51.316;5.994;2023-03-16T05:11:06;1.75;;;1.48;;
49223;SDS011;35050;51.316;5.994;2023-03-16T05:13:32;3.08;;;1.30;;
49223;SDS011;35050;51.316;5.994;2023-03-16T05:15:58;2.13;;;1.30;;
49223;SDS011;35050;51.316;5.994;2023-03-16T05:18:24;2.10;;;1.27;;
49223;SDS011;35050;51.316;5.994;2023-03-16T05:20:51;2.25;;;1.60;;
49223;SDS011;35050;51.316;5.994;2023-03-16T05:23:18;2.85;;;1.73;;
49223;SDS011;35050;51.316;5.994;2023-03-16T05:25:45;1.92;;;1.45;;
49223;SDS011;35050;51.316;5.994;2023-03-16T05:28:11;3.00;;;1.70;;
49223;SDS011;35050;51.316;5.994;2023-03-16T05:30:37;1.98;;;1.70;;
49223;SDS011;35050;51.316;5.994;2023-03-16T05:33:02;2.38;;;1.63;;
49223;SDS011;35050;51.316;5.994;2023-03-16T05:35:28;4.63;;;1.73;;
49223;SDS011;35050;51.316;5.994;2023-03-16T05:37:54;3.35;;;2.03;;
49223;SDS011;35050;51.316;5.994;2023-03-16T05:40:20;2.30;;;1.67;;
49223;SDS011;35050;51.316;5.994;2023-03-16T05:42:47;3.42;;;2.00;;
49223;SDS011;35050;51.316;5.994;2023-03-16T05:45:18;2.50;;;1.60;;
49223;SDS011;35050;51.316;5.994;2023-03-16T05:47:44;2.25;;;1.80;;
49223;SDS011;35050;51.316;5.994;2023-03-16T05:50:11;3.05;;;2.08;;
49223;SDS011;35050;51.316;5.994;2023-03-16T05:52:38;3.45;;;1.60;;
49223;SDS011;35050;51.316;5.994;2023-03-16T05:55:04;3.20;;;1.58;;
49223;SDS011;35050;51.316;5.994;2023-03-16T05:57:31;2.88;;;1.77;;
49223;SDS011;35050;51.316;5.994;2023-03-16T05:59:58;3.65;;;1.60;;
49223;SDS011;35050;51.316;5.994;2023-03-16T06:02:25;3.60;;;2.20;;
49223;SDS011;35050;51.316;5.994;2023-03-16T06:04:51;4.57;;;2.53;;
49223;SDS011;35050;51.316;5.994;2023-03-16T06:07:17;2.72;;;1.90;;
49223;SDS011;35050;51.316;5.994;2023-03-16T06:09:43;2.70;;;1.80;;
49223;SDS011;35050;51.316;5.994;2023-03-16T06:12:08;3.65;;;1.90;;
49223;SDS011;35050;51.316;5.994;2023-03-16T06:14:34;3.17;;;1.92;;
49223;SDS011;35050;51.316;5.994;2023-03-16T06:17:00;4.88;;;2.30;;
49223;SDS011;35050;51.316;5.994;2023-03-16T06:19:26;3.80;;;1.98;;
49223;SDS011;35050;51.316;5.994;2023-03-16T06:21:52;1.73;;;1.52;;
49223;SDS011;35050;51.316;5.994;2023-03-16T06:24:17;2.10;;;1.80;;
49223;SDS011;35050;51.316;5.994;2023-03-16T06:26:43;2.38;;;1.70;;
49223;SDS011;35050;51.316;5.994;2023-03-16T06:29:08;2.60;;;1.90;;
49223;SDS011;35050;51.316;5.994;2023-03-16T06:31:34;3.65;;;2.03;;
49223;SDS011;35050;51.316;5.994;2023-03-16T06:34:00;3.28;;;2.10;;
49223;SDS011;35050;51.316;5.994;2023-03-16T06:36:27;1.85;;;1.67;;
49223;SDS011;35050;51.316;5.994;2023-03-16T06:38:53;1.58;;;1.45;;
49223;SDS011;35050;51.316;5.994;2023-03-16T06:41:18;2.92;;;1.63;;
49223;SDS011;35050;51.316;5.994;2023-03-16T06:43:45;2.55;;;1.50;;
49223;SDS011;35050;51.316;5.994;2023-03-16T06:46:11;3.10;;;1.55;;
49223;SDS011;35050;51.316;5.994;2023-03-16T06:48:37;2.45;;;1.48;;
49223;SDS011;35050;51.316;5.994;2023-03-16T06:51:03;1.58;;;1.42;;
49223;SDS011;35050;51.316;5.994;2023-03-16T06:53:31;3.15;;;1.17;;
49223;SDS011;35050;51.316;5.994;2023-03-16T06:55:57;2.50;;;1.30;;
49223;SDS011;35050;51.316;5.994;2023-03-16T06:58:22;4.63;;;1.73;;
49223;SDS011;35050;51.316;5.994;2023-03-16T07:00:48;2.97;;;1.92;;
49223;SDS011;35050;51.316;5.994;2023-03-16T07:03:13;3.55;;;2.25;;
49223;SDS011;35050;51.316;5.994;2023-03-16T07:05:39;2.40;;;1.85;;
49223;SDS011;35050;51.316;5.994;2023-03-16T07:08:05;3.15;;;2.20;;
49223;SDS011;35050;51.316;5.994;2023-03-16T07:10:30;2.90;;;1.80;;
49223;SDS011;35050;51.316;5.994;2023-03-16T07:12:56;1.70;;;1.60;;
49223;SDS011;35050;51.316;5.994;2023-03-16T07:15:21;4.47;;;2.25;;
49223;SDS011;35050;51.316;5.994;2023-03-16T07:17:50;2.88;;;1.77;;
49223;SDS011;35050;51.316;5.994;2023-03-16T07:20:16;3.25;;;2.22;;
49223;SDS011;35050;51.316;5.994;2023-03-16T07:22:42;3.67;;;2.00;;
49223;SDS011;35050;51.316;5.994;2023-03-16T07:25:08;4.10;;;2.22;;
49223;SDS011;35050;51.316;5.994;2023-03-16T07:27:35;3.22;;;1.90;;
49223;SDS011;35050;51.316;5.994;2023-03-16T07:30:01;3.88;;;2.35;;
49223;SDS011;35050;51.316;5.994;2023-03-16T07:32:29;3.55;;;2.08;;
49223;SDS011;35050;51.316;5.994;2023-03-16T07:34:56;2.67;;;1.85;;
49223;SDS011;35050;51.316;5.994;2023-03-16T07:37:23;4.40;;;1.80;;
49223;SDS011;35050;51.316;5.994;2023-03-16T07:39:49;2.85;;;1.48;;
49223;SDS011;35050;51.316;5.994;2023-03-16T07:42:15;3.00;;;1.50;;
49223;SDS011;35050;51.316;5.994;2023-03-16T07:44:42;4.05;;;2.10;;
49223;SDS011;35050;51.316;5.994;2023-03-16T07:47:09;3.05;;;1.80;;
49223;SDS011;35050;51.316;5.994;2023-03-16T07:49:36;3.72;;;2.10;;
49223;SDS011;35050;51.316;5.994;2023-03-16T07:52:02;4.05;;;2.00;;
49223;SDS011;35050;51.316;5.994;2023-03-16T07:54:28;2.80;;;1.98;;
49223;SDS011;35050;51.316;5.994;2023-03-16T07:56:53;3.65;;;2.00;;
49223;SDS011;35050;51.316;5.994;2023-03-16T07:59:19;3.42;;;1.90;;
49223;SDS011;35050;51.316;5.994;2023-03-16T08:01:45;2.50;;;1.73;;
49223;SDS011;35050;51.316;5.994;2023-03-16T08:04:11;5.47;;;2.50;;
49223;SDS011;35050;51.316;5.994;2023-03-16T08:06:36;5.38;;;2.70;;
49223;SDS011;35050;51.316;5.994;2023-03-16T08:09:02;3.08;;;2.20;;
49223;SDS011;35050;51.316;5.994;2023-03-16T08:11:28;3.35;;;2.20;;
49223;SDS011;35050;51.316;5.994;2023-03-16T08:13:54;4.28;;;2.25;;
49223;SDS011;35050;51.316;5.994;2023-03-16T08:16:23;3.85;;;2.58;;
49223;SDS011;35050;51.316;5.994;2023-03-16T08:18:49;3.80;;;2.55;;
49223;SDS011;35050;51.316;5.994;2023-03-16T08:21:16;3.78;;;2.33;;
49223;SDS011;35050;51.316;5.994;2023-03-16T08:23:42;2.97;;;1.95;;
49223;SDS011;35050;51.316;5.994;2023-03-16T08:26:13;2.65;;;1.90;;
49223;SDS011;35050;51.316;5.994;2023-03-16T08:28:41;3.55;;;1.98;;
49223;SDS011;35050;51.316;5.994;2023-03-16T08:31:09;2.30;;;1.90;;
49223;SDS011;35050;51.316;5.994;2023-03-16T08:33:36;6.05;;;1.98;;
49223;SDS011;35050;51.316;5.994;2023-03-16T08:36:04;2.88;;;2.15;;
49223;SDS011;35050;51.316;5.994;2023-03-16T08:38:31;3.88;;;2.10;;
49223;SDS011;35050;51.316;5.994;2023-03-16T08:40:57;3.22;;;2.17;;
49223;SDS011;35050;51.316;5.994;2023-03-16T08:43:24;4.35;;;2.63;;
49223;SDS011;35050;51.316;5.994;2023-03-16T08:45:51;5.63;;;2.50;;
49223;SDS011;35050;51.316;5.994;2023-03-16T08:48:17;5.05;;;2.42;;
49223;SDS011;35050;51.316;5.994;2023-03-16T08:50:44;2.58;;;1.90;;
49223;SDS011;35050;51.316;5.994;2023-03-16T08:53:11;4.95;;;2.70;;
49223;SDS011;35050;51.316;5.994;2023-03-16T08:55:37;3.72;;;1.85;;
49223;SDS011;35050;51.316;5.994;2023-03-16T08:58:05;5.28;;;2.20;;
49223;SDS011;35050;51.316;5.994;2023-03-16T09:00:34;4.28;;;2.25;;
49223;SDS011;35050;51.316;5.994;2023-03-16T09:03:01;4.57;;;1.90;;
49223;SDS011;35050;51.316;5.994;2023-03-16T09:05:27;3.85;;;2.60;;
49223;SDS011;35050;51.316;5.994;2023-03-16T09:07:53;4.30;;;2.20;;
49223;SDS011;35050;51.316;5.994;2023-03-16T09:10:19;4.78;;;2.38;;
49223;SDS011;35050;51.316;5.994;2023-03-16T09:12:47;5.50;;;2.13;;
49223;SDS011;35050;51.316;5.994;2023-03-16T09:15:16;2.78;;;2.13;;
49223;SDS011;35050;51.316;5.994;2023-03-16T09:17:44;2.00;;;1.80;;
49223;SDS011;35050;51.316;5.994;2023-03-16T09:20:10;5.07;;;2.00;;
49223;SDS011;35050;51.316;5.994;2023-03-16T09:22:36;4.28;;;1.80;;
49223;SDS011;35050;51.316;5.994;2023-03-16T09:25:03;4.43;;;1.52;;
49223;SDS011;35050;51.316;5.994;2023-03-16T09:27:31;4.32;;;1.90;;
49223;SDS011;35050;51.316;5.994;2023-03-16T09:29:57;6.22;;;1.85;;
49223;SDS011;35050;51.316;5.994;2023-03-16T09:32:25;3.13;;;1.90;;
49223;SDS011;35050;51.316;5.994;2023-03-16T09:34:52;4.10;;;2.30;;
49223;SDS011;35050;51.316;5.994;2023-03-16T09:37:18;4.97;;;1.75;;
49223;SDS011;35050;51.316;5.994;2023-03-16T09:39:45;3.13;;;1.70;;
49223;SDS011;35050;51.316;5.994;2023-03-16T09:47:20;2.78;;;1.73;;
49223;SDS011;35050;51.316;5.994;2023-03-16T09:49:50;2.85;;;1.73;;
49223;SDS011;35050;51.316;5.994;2023-03-16T09:52:40;4.63;;;1.80;;
49223;SDS011;35050;51.316;5.994;2023-03-16T09:57:38;4.85;;;1.70;;
49223;SDS011;35050;51.316;5.994;2023-03-16T10:00:13;3.33;;;1.67;;
49223;SDS011;35050;51.316;5.994;2023-03-16T10:05:19;4.22;;;1.85;;
49223;SDS011;35050;51.316;5.994;2023-03-16T10:16:10;5.45;;;2.05;;
49223;SDS011;35050;51.316;5.994;2023-03-16T10:19:04;3.95;;;1.70;;
49223;SDS011;35050;51.316;5.994;2023-03-16T10:21:37;4.93;;;2.00;;
49223;SDS011;35050;51.316;5.994;2023-03-16T10:24:23;4.57;;;1.92;;
49223;SDS011;35050;51.316;5.994;2023-03-16T10:27:08;4.28;;;2.78;;
49223;SDS011;35050;51.316;5.994;2023-03-16T10:29:42;6.93;;;2.78;;
49223;SDS011;35050;51.316;5.994;2023-03-16T10:32:12;3.45;;;1.50;;
49223;SDS011;35050;51.316;5.994;2023-03-16T10:34:46;3.47;;;1.65;;
49223;SDS011;35050;51.316;5.994;2023-03-16T10:37:17;3.92;;;1.60;;
49223;SDS011;35050;51.316;5.994;2023-03-16T10:39:44;3.53;;;1.70;;
49223;SDS011;35050;51.316;5.994;2023-03-16T10:42:13;4.00;;;1.63;;
49223;SDS011;35050;51.316;5.994;2023-03-16T10:44:41;4.25;;;1.90;;
49223;SDS011;35050;51.316;5.994;2023-03-16T10:47:15;2.78;;;1.77;;
49223;SDS011;35050;51.316;5.994;2023-03-16T10:49:43;2.92;;;1.67;;
49223;SDS011;35050;51.316;5.994;2023-03-16T10:52:24;3.30;;;1.50;;
49223;SDS011;35050;51.316;5.994;2023-03-16T10:55:05;3.50;;;1.30;;
49223;SDS011;35050;51.316;5.994;2023-03-16T10:57:40;2.75;;;1.30;;
49223;SDS011;35050;51.316;5.994;2023-03-16T11:02:44;5.15;;;1.60;;
49223;SDS011;35050;51.316;5.994;2023-03-16T11:05:31;3.25;;;1.35;;
49223;SDS011;35050;51.316;5.994;2023-03-16T11:10:38;1.85;;;1.00;;
49223;SDS011;35050;51.316;5.994;2023-03-16T11:13:18;2.35;;;1.05;;
49223;SDS011;35050;51.316;5.994;2023-03-16T11:18:40;2.70;;;1.20;;
49223;SDS011;35050;51.316;5.994;2023-03-16T11:21:13;2.75;;;1.38;;
49223;SDS011;35050;51.316;5.994;2023-03-16T11:26:20;7.07;;;1.75;;
49223;SDS011;35050;51.316;5.994;2023-03-16T11:29:40;2.42;;;1.35;;
49223;SDS011;35050;51.316;5.994;2023-03-16T11:31:41;2.28;;;1.00;;
49223;SDS011;35050;51.316;5.994;2023-03-16T11:34:31;1.73;;;1.05;;
49223;SDS011;35050;51.316;5.994;2023-03-16T11:44:56;4.30;;;0.98;;
49223;SDS011;35050;51.316;5.994;2023-03-16T11:50:31;2.88;;;1.67;;
49223;SDS011;35050;51.316;5.994;2023-03-16T11:55:52;2.50;;;1.30;;
49223;SDS011;35050;51.316;5.994;2023-03-16T11:58:39;2.22;;;1.08;;
49223;SDS011;35050;51.316;5.994;2023-03-16T12:15:49;1.65;;;1.10;;
49223;SDS011;35050;51.316;5.994;2023-03-16T12:18:20;3.10;;;1.48;;
49223;SDS011;35050;51.316;5.994;2023-03-16T12:20:54;3.03;;;1.00;;
49223;SDS011;35050;51.316;5.994;2023-03-16T12:25:59;3.13;;;1.33;;
49223;SDS011;35050;51.316;5.994;2023-03-16T12:28:26;4.22;;;1.75;;
49223;SDS011;35050;51.316;5.994;2023-03-16T12:36:35;3.10;;;1.15;;
49223;SDS011;35050;51.316;5.994;2023-03-16T12:47:26;1.63;;;1.15;;
49223;SDS011;35050;51.316;5.994;2023-03-16T12:50:09;3.25;;;1.00;;
49223;SDS011;35050;51.316;5.994;2023-03-16T12:52:43;2.92;;;1.10;;
49223;SDS011;35050;51.316;5.994;2023-03-16T12:55:17;2.03;;;1.10;;
49223;SDS011;35050;51.316;5.994;2023-03-16T12:58:03;2.97;;;1.00;;
49223;SDS011;35050;51.316;5.994;2023-03-16T13:00:35;1.73;;;0.90;;
49223;SDS011;35050;51.316;5.994;2023-03-16T13:03:05;1.83;;;0.80;;
49223;SDS011;35050;51.316;5.994;2023-03-16T13:08:09;3.60;;;1.33;;
49223;SDS011;35050;51.316;5.994;2023-03-16T13:10:38;2.13;;;1.00;;
49223;SDS011;35050;51.316;5.994;2023-03-16T13:13:15;2.90;;;1.10;;
49223;SDS011;35050;51.316;5.994;2023-03-16T13:15:42;6.43;;;2.30;;
49223;SDS011;35050;51.316;5.994;2023-03-16T13:25:43;2.80;;;0.90;;
49223;SDS011;35050;51.316;5.994;2023-03-16T13:28:21;2.15;;;0.80;;
49223;SDS011;35050;51.316;5.994;2023-03-16T13:30:53;2.28;;;1.00;;
49223;SDS011;35050;51.316;5.994;2023-03-16T13:33:23;2.47;;;1.00;;
49223;SDS011;35050;51.316;5.994;2023-03-16T13:35:53;1.40;;;1.00;;
49223;SDS011;35050;51.316;5.994;2023-03-16T13:38:21;1.60;;;0.98;;
49223;SDS011;35050;51.316;5.994;2023-03-16T13:40:57;1.93;;;0.80;;
49223;SDS011;35050;51.316;5.994;2023-03-16T13:43:28;1.58;;;0.95;;
49223;SDS011;35050;51.316;5.994;2023-03-16T13:45:57;1.73;;;0.90;;
49223;SDS011;35050;51.316;5.994;2023-03-16T13:48:23;3.47;;;1.13;;
49223;SDS011;35050;51.316;5.994;2023-03-16T13:50:56;2.65;;;1.08;;
49223;SDS011;35050;51.316;5.994;2023-03-16T13:53:23;1.55;;;0.80;;
49223;SDS011;35050;51.316;5.994;2023-03-16T13:55:52;1.75;;;0.90;;
49223;SDS011;35050;51.316;5.994;2023-03-16T14:00:57;4.30;;;1.50;;
49223;SDS011;35050;51.316;5.994;2023-03-16T14:03:37;1.70;;;0.70;;
49223;SDS011;35050;51.316;5.994;2023-03-16T14:06:06;1.77;;;0.80;;
49223;SDS011;35050;51.316;5.994;2023-03-16T14:08:42;3.30;;;0.82;;
49223;SDS011;35050;51.316;5.994;2023-03-16T14:11:13;1.02;;;0.80;;
49223;SDS011;35050;51.316;5.994;2023-03-16T14:13:39;2.05;;;0.95;;
49223;SDS011;35050;51.316;5.994;2023-03-16T14:16:12;2.75;;;0.93;;
49223;SDS011;35050;51.316;5.994;2023-03-16T14:18:42;2.00;;;1.08;;
49223;SDS011;35050;51.316;5.994;2023-03-16T14:21:13;1.75;;;1.10;;
49223;SDS011;35050;51.316;5.994;2023-03-16T14:23:45;1.58;;;0.85;;
49223;SDS011;35050;51.316;5.994;2023-03-16T14:26:13;1.83;;;0.65;;
49223;SDS011;35050;51.316;5.994;2023-03-16T14:31:39;1.73;;;1.13;;
49223;SDS011;35050;51.316;5.994;2023-03-16T14:36:52;2.05;;;0.88;;
49223;SDS011;35050;51.316;5.994;2023-03-16T14:39:35;2.63;;;1.07;;
49223;SDS011;35050;51.316;5.994;2023-03-16T14:42:04;2.08;;;1.20;;
49223;SDS011;35050;51.316;5.994;2023-03-16T14:44:39;2.38;;;0.80;;
49223;SDS011;35050;51.316;5.994;2023-03-16T14:47:05;1.25;;;0.70;;
49223;SDS011;35050;51.316;5.994;2023-03-16T14:49:35;1.45;;;0.80;;
49223;SDS011;35050;51.316;5.994;2023-03-16T14:52:23;1.98;;;0.93;;
49223;SDS011;35050;51.316;5.994;2023-03-16T14:54:51;2.80;;;1.48;;
49223;SDS011;35050;51.316;5.994;2023-03-16T14:57:19;3.05;;;0.80;;
49223;SDS011;35050;51.316;5.994;2023-03-16T14:59:45;1.95;;;0.70;;
49223;SDS011;35050;51.316;5.994;2023-03-16T15:02:18;1.20;;;0.80;;
49223;SDS011;35050;51.316;5.994;2023-03-16T15:04:48;1.92;;;0.93;;
49223;SDS011;35050;51.316;5.994;2023-03-16T15:07:22;1.77;;;0.73;;
49223;SDS011;35050;51.316;5.994;2023-03-16T15:09:51;2.80;;;0.80;;
49223;SDS011;35050;51.316;5.994;2023-03-16T15:12:18;3.60;;;1.80;;
49223;SDS011;35050;51.316;5.994;2023-03-16T15:14:46;1.52;;;1.10;;
49223;SDS011;35050;51.316;5.994;2023-03-16T15:17:31;1.42;;;0.88;;
49223;SDS011;35050;51.316;5.994;2023-03-16T15:19:57;1.92;;;0.75;;
49223;SDS011;35050;51.316;5.994;2023-03-16T15:22:30;2.92;;;1.20;;
49223;SDS011;35050;51.316;5.994;2023-03-16T15:25:43;1.13;;;0.80;;
49223;SDS011;35050;51.316;5.994;2023-03-16T15:28:11;1.48;;;0.80;;
49223;SDS011;35050;51.316;5.994;2023-03-16T15:30:46;1.67;;;0.70;;
49223;SDS011;35050;51.316;5.994;2023-03-16T15:33:14;0.98;;;0.73;;
49223;SDS011;35050;51.316;5.994;2023-03-16T15:35:41;1.02;;;0.70;;
49223;SDS011;35050;51.316;5.994;2023-03-16T15:38:27;1.35;;;0.70;;
49223;SDS011;35050;51.316;5.994;2023-03-16T15:40:55;1.38;;;0.70;;
49223;SDS011;35050;51.316;5.994;2023-03-16T15:43:22;1.52;;;0.80;;
49223;SDS011;35050;51.316;5.994;2023-03-16T15:45:49;1.85;;;0.85;;
49223;SDS011;35050;51.316;5.994;2023-03-16T15:48:16;2.28;;;0.60;;
49223;SDS011;35050;51.316;5.994;2023-03-16T15:50:46;2.05;;;1.10;;
49223;SDS011;35050;51.316;5.994;2023-03-16T15:55:47;4.45;;;1.83;;
49223;SDS011;35050;51.316;5.994;2023-03-16T15:58:21;1.58;;;0.80;;
49223;SDS011;35050;51.316;5.994;2023-03-16T16:00:50;1.25;;;0.60;;
49223;SDS011;35050;51.316;5.994;2023-03-16T16:03:19;1.70;;;0.70;;
49223;SDS011;35050;51.316;5.994;2023-03-16T16:05:45;2.33;;;0.70;;
49223;SDS011;35050;51.316;5.994;2023-03-16T16:08:10;1.42;;;0.80;;
49223;SDS011;35050;51.316;5.994;2023-03-16T16:10:36;2.00;;;1.08;;
49223;SDS011;35050;51.316;5.994;2023-03-16T16:13:03;1.13;;;0.50;;
49223;SDS011;35050;51.316;5.994;2023-03-16T16:15:30;2.83;;;0.60;;
49223;SDS011;35050;51.316;5.994;2023-03-16T16:18:01;1.15;;;0.60;;
49223;SDS011;35050;51.316;5.994;2023-03-16T16:20:31;0.98;;;0.60;;
49223;SDS011;35050;51.316;5.994;2023-03-16T16:22:57;0.43;;;0.43;;
49223;SDS011;35050;51.316;5.994;2023-03-16T16:25:37;1.63;;;0.60;;
49223;SDS011;35050;51.316;5.994;2023-03-16T16:28:15;1.95;;;0.63;;
49223;SDS011;35050;51.316;5.994;2023-03-16T16:30:43;1.75;;;0.50;;
49223;SDS011;35050;51.316;5.994;2023-03-16T16:33:23;1.35;;;0.52;;
49223;SDS011;35050;51.316;5.994;2023-03-16T16:35:51;3.03;;;0.60;;
49223;SDS011;35050;51.316;5.994;2023-03-16T16:38:18;1.02;;;0.50;;
49223;SDS011;35050;51.316;5.994;2023-03-16T16:40:44;0.75;;;0.70;;
49223;SDS011;35050;51.316;5.994;2023-03-16T16:46:01;0.70;;;0.50;;
49223;SDS011;35050;51.316;5.994;2023-03-16T16:51:01;0.30;;;0.30;;
49223;SDS011;35050;51.316;5.994;2023-03-16T16:53:28;0.30;;;0.30;;